createdAt,value
2017-06-24T00:00:41.979Z,54.40
2017-06-24T00:03:10.069Z,54.40
2017-06-24T00:05:38.126Z,54.10
2017-06-24T00:08:06.175Z,54.60
2017-06-24T00:10:34.271Z,54.90
2017-06-24T00:13:02.315Z,55.10
2017-06-24T00:15:30.379Z,55.00
2017-06-24T00:17:58.457Z,54.70
2017-06-24T00:20:26.523Z,54.50
2017-06-24T00:22:54.600Z,54.40
2017-06-24T00:25:22.694Z,54.20
2017-06-24T00:27:50.738Z,53.90
2017-06-24T00:30:18.792Z,54.30
2017-06-24T00:32:46.858Z,54.50
2017-06-24T00:35:14.927Z,53.80
2017-06-24T00:37:42.998Z,53.20
2017-06-24T00:40:11.071Z,53.80
2017-06-24T00:42:39.131Z,53.40
2017-06-24T00:45:07.212Z,53.00
2017-06-24T00:47:35.274Z,53.20
2017-06-24T00:50:03.334Z,53.10
2017-06-24T00:52:31.975Z,53.50
2017-06-24T00:55:00.031Z,53.60
2017-06-24T00:57:28.079Z,53.70
2017-06-24T00:59:56.156Z,53.50
2017-06-24T01:02:24.215Z,53.40
2017-06-24T01:04:52.267Z,53.00
2017-06-24T01:07:20.360Z,52.50
2017-06-24T01:09:48.411Z,52.50
2017-06-24T01:12:16.484Z,52.30
2017-06-24T01:14:44.551Z,52.10
2017-06-24T01:17:12.620Z,52.20
2017-06-24T01:19:40.674Z,52.60
2017-06-24T01:22:09.499Z,52.50
2017-06-24T01:24:37.646Z,52.30
2017-06-24T01:27:05.703Z,52.40
2017-06-24T01:29:33.746Z,53.10
2017-06-24T01:32:02.583Z,53.90
2017-06-24T01:34:30.663Z,53.30
2017-06-24T01:36:58.716Z,53.50
2017-06-24T01:39:26.774Z,54.40
2017-06-24T01:41:54.844Z,55.10
2017-06-24T01:44:22.920Z,55.10
2017-06-24T01:46:50.976Z,55.00
2017-06-24T01:49:19.055Z,55.10
2017-06-24T01:51:47.102Z,55.20
2017-06-24T01:54:15.927Z,55.50
2017-06-24T01:56:44.003Z,55.40
2017-06-24T01:59:12.075Z,55.80
2017-06-24T02:01:40.158Z,55.50
2017-06-24T02:04:08.211Z,55.90
2017-06-24T02:06:36.275Z,56.10
2017-06-24T02:09:04.346Z,56.20
2017-06-24T02:11:33.543Z,55.80
2017-06-24T02:14:01.640Z,55.90
2017-06-24T02:16:29.682Z,56.00
2017-06-24T02:18:57.732Z,56.10
2017-06-24T02:21:26.561Z,56.60
2017-06-24T02:23:54.626Z,56.50
2017-06-24T02:26:23.423Z,57.00
2017-06-24T02:28:51.482Z,56.70
2017-06-24T02:31:20.792Z,56.40
2017-06-24T02:33:49.835Z,56.20
2017-06-24T02:36:17.894Z,56.40
2017-06-24T02:38:45.955Z,56.30
2017-06-24T02:41:14.030Z,55.90
2017-06-24T02:43:42.427Z,55.60
2017-06-24T02:46:10.483Z,55.70
2017-06-24T02:48:38.604Z,55.50
2017-06-24T02:51:06.655Z,55.90
2017-06-24T02:53:34.712Z,55.40
2017-06-24T02:56:02.783Z,55.70
2017-06-24T02:58:30.855Z,56.00
2017-06-24T03:00:58.951Z,55.30
2017-06-24T03:03:26.999Z,55.10
2017-06-24T03:05:55.058Z,55.20
2017-06-24T03:08:23.113Z,55.90
2017-06-24T03:10:51.182Z,55.60
2017-06-24T03:13:19.270Z,55.50
2017-06-24T03:15:47.330Z,54.90
2017-06-24T03:18:15.381Z,54.20
2017-06-24T03:20:43.447Z,54.80
2017-06-24T03:23:11.514Z,54.90
2017-06-24T03:25:39.554Z,55.00
2017-06-24T03:28:07.652Z,55.20
2017-06-24T03:30:36.470Z,56.20
2017-06-24T03:33:04.539Z,56.10
2017-06-24T03:35:33.387Z,56.40
2017-06-24T03:38:01.466Z,56.30
2017-06-24T03:40:29.523Z,56.30
2017-06-24T03:42:57.588Z,55.60
2017-06-24T03:45:25.667Z,55.80
2017-06-24T03:47:53.766Z,56.10
2017-06-24T03:50:22.600Z,57.10
2017-06-24T03:52:50.663Z,56.50
2017-06-24T03:55:18.726Z,56.60
2017-06-24T03:57:46.802Z,56.30
2017-06-24T04:00:14.856Z,55.80
2017-06-24T04:02:42.915Z,56.00
2017-06-24T04:05:11.810Z,55.60
2017-06-24T04:07:40.764Z,55.60
2017-06-24T04:10:08.827Z,55.60
2017-06-24T04:12:36.885Z,55.40
2017-06-24T04:15:04.947Z,55.30
2017-06-24T04:17:33.039Z,55.50
2017-06-24T04:20:01.083Z,55.80
2017-06-24T04:22:29.130Z,55.30
2017-06-24T04:24:57.968Z,56.00
2017-06-24T04:27:26.032Z,56.00
2017-06-24T04:29:54.116Z,56.00
2017-06-24T04:32:22.180Z,55.60
2017-06-24T04:34:50.259Z,55.40
2017-06-24T04:37:18.321Z,55.30
2017-06-24T04:39:46.387Z,54.90
2017-06-24T04:42:14.456Z,55.60
2017-06-24T04:44:42.502Z,55.50
2017-06-24T04:47:10.598Z,55.70
2017-06-24T04:49:38.672Z,55.50
2017-06-24T04:52:06.786Z,55.70
2017-06-24T04:54:34.827Z,56.20
2017-06-24T04:57:02.899Z,56.10
2017-06-24T04:59:31.727Z,57.10
2017-06-24T05:01:59.790Z,56.50
2017-06-24T05:04:27.862Z,56.60
2017-06-24T05:06:55.920Z,56.60
2017-06-24T05:09:24.744Z,56.50
2017-06-24T05:11:52.826Z,56.40
2017-06-24T05:14:20.872Z,56.50
2017-06-24T05:16:48.935Z,56.50
2017-06-24T05:19:17.015Z,56.60
2017-06-24T05:21:45.078Z,56.50
2017-06-24T05:24:13.133Z,56.80
2017-06-24T05:26:41.966Z,56.30
2017-06-24T05:29:10.026Z,56.20
2017-06-24T05:31:38.103Z,56.00
2017-06-24T05:34:06.190Z,56.10
2017-06-24T05:36:35.030Z,56.30
2017-06-24T05:39:03.104Z,56.30
2017-06-24T05:41:31.159Z,55.90
2017-06-24T05:43:59.232Z,55.80
2017-06-24T05:46:27.314Z,55.50
2017-06-24T05:48:55.381Z,55.50
2017-06-24T05:51:23.463Z,55.00
2017-06-24T05:53:51.530Z,55.20
2017-06-24T05:56:19.588Z,55.50
2017-06-24T05:58:47.782Z,55.00
2017-06-24T06:01:15.880Z,55.00
2017-06-24T06:03:44.735Z,54.70
2017-06-24T06:06:12.839Z,54.60
2017-06-24T06:08:40.919Z,54.60
2017-06-24T06:11:09.746Z,54.40
2017-06-24T06:13:37.813Z,54.30
2017-06-24T06:16:05.883Z,54.80
2017-06-24T06:18:33.951Z,54.60
2017-06-24T06:21:02.047Z,54.70
2017-06-24T06:23:30.123Z,54.60
2017-06-24T06:25:58.210Z,54.30
2017-06-24T06:28:26.254Z,54.70
2017-06-24T06:30:54.330Z,55.10
2017-06-24T06:33:22.411Z,55.90
2017-06-24T06:35:50.462Z,56.50
2017-06-24T06:38:18.537Z,56.40
2017-06-24T06:40:46.582Z,56.00
2017-06-24T06:43:15.447Z,56.30
2017-06-24T06:45:43.491Z,56.30
2017-06-24T06:48:11.583Z,56.10
2017-06-24T06:50:39.642Z,55.40
2017-06-24T06:53:07.710Z,55.30
2017-06-24T06:55:35.771Z,55.20
2017-06-24T06:58:03.826Z,54.90
2017-06-24T07:00:31.912Z,54.10
2017-06-24T07:02:59.974Z,53.90
2017-06-24T07:05:28.023Z,54.20
2017-06-24T07:07:56.943Z,54.00
2017-06-24T07:10:25.012Z,54.00
2017-06-24T07:12:53.055Z,53.30
2017-06-24T07:15:21.904Z,53.90
2017-06-24T07:17:49.949Z,53.80
2017-06-24T07:20:18.023Z,53.70
2017-06-24T07:22:46.086Z,54.30
2017-06-24T07:25:14.155Z,54.70
2017-06-24T07:27:42.223Z,54.00
2017-06-24T07:30:10.286Z,54.10
2017-06-24T07:32:38.638Z,54.10
2017-06-24T07:35:06.724Z,54.80
2017-06-24T07:37:34.781Z,54.90
2017-06-24T07:40:02.823Z,54.80
2017-06-24T07:42:30.900Z,54.50
2017-06-24T07:44:58.959Z,54.60
2017-06-24T07:47:27.028Z,54.80
2017-06-24T07:49:55.108Z,54.90
2017-06-24T07:52:23.174Z,54.40
2017-06-24T07:54:51.244Z,54.40
2017-06-24T07:57:19.323Z,53.50
2017-06-24T07:59:47.391Z,53.40
2017-06-24T08:02:15.437Z,53.10
2017-06-24T08:04:44.282Z,51.70
2017-06-24T08:07:12.371Z,51.70
2017-06-24T08:09:40.432Z,51.50
2017-06-24T08:12:08.488Z,51.00
2017-06-24T08:14:36.564Z,50.20
2017-06-24T08:17:04.618Z,50.10
2017-06-24T08:19:32.694Z,50.10
2017-06-24T08:22:00.770Z,50.10
2017-06-24T08:24:28.835Z,50.40
2017-06-24T08:26:56.986Z,50.20
2017-06-24T08:29:25.823Z,51.10
2017-06-24T08:31:53.880Z,51.00
2017-06-24T08:34:21.936Z,50.80
2017-06-24T08:36:50.015Z,50.40
2017-06-24T08:39:18.073Z,50.50
2017-06-24T08:41:47.543Z,50.40
2017-06-24T08:44:15.591Z,50.00
2017-06-24T08:46:44.171Z,50.50
2017-06-24T08:49:12.260Z,50.40
2017-06-24T08:51:40.312Z,49.70
2017-06-24T08:54:08.381Z,48.00
2017-06-24T08:56:36.467Z,47.40
2017-06-24T08:59:04.523Z,48.00
2017-06-24T09:01:32.579Z,48.80
2017-06-24T09:04:00.686Z,49.50
2017-06-24T09:06:28.748Z,48.60
2017-06-24T09:08:56.820Z,48.20
2017-06-24T09:11:24.895Z,47.60
2017-06-24T09:13:52.962Z,47.10
2017-06-24T09:16:21.020Z,46.90
2017-06-24T09:18:49.197Z,46.50
2017-06-24T09:21:17.266Z,46.40
2017-06-24T09:23:45.323Z,46.10
2017-06-24T09:26:13.402Z,46.70
2017-06-24T09:28:41.512Z,46.40
2017-06-24T09:31:09.598Z,43.70
2017-06-24T09:33:38.438Z,45.40
2017-06-24T09:36:06.859Z,45.30
2017-06-24T09:38:34.900Z,46.60
2017-06-24T09:41:03.528Z,46.50
2017-06-24T09:43:31.570Z,46.40
2017-06-24T09:46:00.403Z,46.50
2017-06-24T09:48:28.478Z,46.50
2017-06-24T09:50:56.626Z,47.20
2017-06-24T09:53:24.703Z,47.60
2017-06-24T09:55:52.795Z,47.50
2017-06-24T09:58:20.855Z,47.70
2017-06-24T10:00:48.915Z,47.70
2017-06-24T10:03:16.967Z,47.80
2017-06-24T10:05:45.040Z,47.90
2017-06-24T10:08:13.098Z,48.10
2017-06-24T10:10:41.930Z,48.80
2017-06-24T10:13:10.006Z,48.70
2017-06-24T10:15:38.106Z,48.20
2017-06-24T10:18:06.184Z,48.50
2017-06-24T10:20:34.247Z,48.20
2017-06-24T10:23:02.299Z,48.40
2017-06-24T10:25:30.379Z,48.50
2017-06-24T10:27:58.459Z,48.80
2017-06-24T10:30:26.519Z,49.00
2017-06-24T10:32:54.602Z,49.20
2017-06-24T10:35:22.650Z,49.00
2017-06-24T10:37:50.719Z,49.20
2017-06-24T10:40:18.784Z,49.40
2017-06-24T10:42:46.885Z,49.10
2017-06-24T10:45:14.951Z,49.50
2017-06-24T10:47:43.033Z,48.70
2017-06-24T10:50:11.104Z,48.10
2017-06-24T10:52:39.172Z,48.50
2017-06-24T10:55:07.250Z,48.40
2017-06-24T10:57:35.348Z,48.00
2017-06-24T11:00:03.410Z,48.50
2017-06-24T11:02:32.254Z,49.70
2017-06-24T11:05:00.321Z,49.10
2017-06-24T11:07:28.378Z,48.80
2017-06-24T11:09:56.442Z,47.80
2017-06-24T11:12:25.431Z,48.40
2017-06-24T11:14:53.463Z,48.50
2017-06-24T11:17:22.305Z,49.40
2017-06-24T11:19:50.371Z,48.60
2017-06-24T11:22:18.469Z,49.00
2017-06-24T11:24:46.516Z,49.00
2017-06-24T11:27:14.582Z,49.30
2017-06-24T11:29:42.655Z,49.10
2017-06-24T11:32:10.723Z,49.60
2017-06-24T11:34:38.895Z,49.40
2017-06-24T11:37:06.968Z,49.80
2017-06-24T11:39:35.049Z,50.70
2017-06-24T11:42:03.102Z,51.40
2017-06-24T11:44:31.155Z,51.20
2017-06-24T11:46:59.214Z,51.60
2017-06-24T11:49:27.288Z,51.00
2017-06-24T11:51:55.351Z,51.10
2017-06-24T11:54:23.416Z,51.40
2017-06-24T11:56:51.515Z,50.40
2017-06-24T11:59:19.582Z,49.80
2017-06-24T12:01:47.635Z,49.30
2017-06-24T12:04:15.707Z,49.20
2017-06-24T12:06:43.771Z,48.90
2017-06-24T12:09:11.835Z,49.00
2017-06-24T12:11:39.919Z,49.90
2017-06-24T12:14:07.982Z,50.20
2017-06-24T12:16:36.052Z,50.80
2017-06-24T12:19:04.119Z,51.10
2017-06-24T12:21:32.175Z,51.80
2017-06-24T12:24:01.131Z,51.60
2017-06-24T12:26:29.179Z,51.60
2017-06-24T12:28:57.270Z,51.20
2017-06-24T12:31:25.351Z,51.40
2017-06-24T12:33:53.414Z,52.00
2017-06-24T12:36:21.486Z,51.80
2017-06-24T12:38:49.631Z,52.30
2017-06-24T12:41:17.683Z,52.30
2017-06-24T12:43:46.515Z,53.30
2017-06-24T12:46:14.593Z,52.60
2017-06-24T12:48:42.663Z,52.20
2017-06-24T12:51:10.723Z,51.40
2017-06-24T12:53:38.802Z,51.30
2017-06-24T12:56:06.868Z,51.30
2017-06-24T12:58:34.923Z,51.70
2017-06-24T13:01:03.004Z,51.60
2017-06-24T13:03:31.080Z,51.20
2017-06-24T13:05:59.119Z,51.70
2017-06-24T13:08:27.230Z,51.50
2017-06-24T13:10:55.277Z,51.50
2017-06-24T13:13:23.324Z,52.50
2017-06-24T13:15:51.410Z,52.50
2017-06-24T13:18:19.483Z,52.10
2017-06-24T13:20:47.554Z,52.90
2017-06-24T13:23:15.636Z,52.50
2017-06-24T13:25:43.718Z,53.30
2017-06-24T13:28:11.775Z,53.00
2017-06-24T13:30:39.839Z,52.90
2017-06-24T13:33:07.902Z,53.30
2017-06-24T13:35:35.991Z,53.90
2017-06-24T13:38:04.050Z,54.60
2017-06-24T13:40:32.102Z,55.00
2017-06-24T13:43:00.183Z,55.60
2017-06-24T13:45:28.248Z,55.90
2017-06-24T13:47:56.300Z,56.20
2017-06-24T13:50:24.387Z,56.10
2017-06-24T13:52:52.461Z,56.50
2017-06-24T13:55:20.524Z,56.70
2017-06-24T13:57:48.609Z,56.90
2017-06-24T14:00:16.674Z,56.70
2017-06-24T14:02:44.743Z,56.40
2017-06-24T14:05:13.671Z,56.40
2017-06-24T14:07:41.755Z,56.50
2017-06-24T14:10:09.823Z,56.10
2017-06-24T14:12:37.895Z,56.60
2017-06-24T14:15:05.939Z,56.80
2017-06-24T14:17:34.028Z,56.50
2017-06-24T14:20:02.107Z,56.70
2017-06-24T14:22:30.155Z,56.70
2017-06-24T14:24:58.239Z,56.40
2017-06-24T14:27:26.303Z,56.50
2017-06-24T14:29:54.389Z,57.10
2017-06-24T14:32:22.456Z,57.20
2017-06-24T14:34:50.506Z,57.00
2017-06-24T14:37:18.567Z,57.20
2017-06-24T14:39:46.642Z,57.30
2017-06-24T14:42:14.710Z,57.50
2017-06-24T14:44:42.798Z,57.90
2017-06-24T14:47:11.615Z,58.40
2017-06-24T14:49:39.662Z,58.40
2017-06-24T14:52:08.370Z,58.40
2017-06-24T14:54:36.435Z,58.10
2017-06-24T14:57:04.512Z,58.60
2017-06-24T14:59:32.595Z,58.40
2017-06-24T15:02:00.655Z,58.50
2017-06-24T15:04:28.720Z,58.40
2017-06-24T15:06:56.827Z,58.50
2017-06-24T15:09:24.883Z,58.40
2017-06-24T15:11:53.513Z,58.60
2017-06-24T15:14:22.395Z,58.50
2017-06-24T15:16:50.483Z,58.30
2017-06-24T15:19:19.323Z,58.40
2017-06-24T15:21:47.400Z,58.40
2017-06-24T15:24:15.468Z,58.00
2017-06-24T15:26:43.562Z,57.80
2017-06-24T15:29:11.698Z,57.60
2017-06-24T15:31:39.768Z,57.80
2017-06-24T15:34:07.824Z,58.10
2017-06-24T15:36:35.870Z,58.60
2017-06-24T15:39:04.712Z,58.40
2017-06-24T15:41:32.825Z,58.40
2017-06-24T15:44:00.852Z,58.50
2017-06-24T15:46:28.932Z,58.20
2017-06-24T15:48:57.008Z,58.30
2017-06-24T15:51:25.060Z,58.40
2017-06-24T15:53:53.132Z,58.40
2017-06-24T15:56:21.208Z,57.90
2017-06-24T15:58:49.251Z,58.30
2017-06-24T16:01:18.093Z,58.30
2017-06-24T16:03:46.175Z,57.70
2017-06-24T16:06:14.265Z,57.90
2017-06-24T16:08:43.184Z,57.40
2017-06-24T16:11:12.041Z,57.50
2017-06-24T16:13:40.107Z,57.50
2017-06-24T16:16:08.163Z,57.90
2017-06-24T16:18:36.241Z,57.80
2017-06-24T16:21:04.307Z,58.00
2017-06-24T16:23:32.395Z,58.30
2017-06-24T16:26:00.464Z,58.50
2017-06-24T16:28:28.530Z,58.10
2017-06-24T16:30:56.611Z,58.50
2017-06-24T16:33:24.679Z,59.10
2017-06-24T16:35:52.743Z,59.60
2017-06-24T16:38:20.835Z,59.40
2017-06-24T16:40:51.065Z,60.10
2017-06-24T16:43:19.118Z,59.40
2017-06-24T16:45:47.984Z,59.60
2017-06-24T16:48:16.058Z,59.60
2017-06-24T16:50:44.122Z,59.50
2017-06-24T16:53:12.204Z,59.60
2017-06-24T16:55:40.268Z,59.40
2017-06-24T16:58:08.314Z,59.20
2017-06-24T17:00:36.411Z,59.10
2017-06-24T17:03:04.457Z,59.40
2017-06-24T17:05:32.518Z,59.50
2017-06-24T17:08:00.608Z,59.30
2017-06-24T17:10:28.666Z,59.10
2017-06-24T17:12:56.736Z,59.00
2017-06-24T17:15:24.795Z,58.80
2017-06-24T17:17:52.878Z,59.10
2017-06-24T17:20:20.976Z,59.90
2017-06-24T17:22:49.059Z,59.80
2017-06-24T17:25:17.135Z,59.70
2017-06-24T17:27:45.178Z,60.00
2017-06-24T17:30:13.241Z,60.80
2017-06-24T17:32:41.326Z,60.90
2017-06-24T17:35:09.386Z,60.30
2017-06-24T17:37:37.427Z,59.90
2017-06-24T17:40:05.520Z,60.00
2017-06-24T17:42:33.589Z,59.70
2017-06-24T17:45:01.655Z,59.50
2017-06-24T17:47:29.715Z,59.40
2017-06-24T17:49:57.778Z,59.40
2017-06-24T17:52:25.868Z,59.10
2017-06-24T17:54:53.952Z,58.80
2017-06-24T17:57:22.006Z,58.50
2017-06-24T17:59:50.079Z,58.30
2017-06-24T18:02:18.159Z,57.90
2017-06-24T18:04:46.247Z,57.80
2017-06-24T18:07:14.318Z,57.70
2017-06-24T18:09:42.398Z,58.10
2017-06-24T18:12:10.466Z,58.10
2017-06-24T18:14:38.531Z,58.10
2017-06-24T18:17:06.623Z,58.10
2017-06-24T18:19:34.695Z,57.80
2017-06-24T18:22:03.530Z,58.00
2017-06-24T18:24:31.636Z,58.00
2017-06-24T18:26:59.715Z,58.00
2017-06-24T18:29:27.775Z,58.00
2017-06-24T18:31:56.667Z,57.60
2017-06-24T18:34:24.808Z,57.60
2017-06-24T18:36:53.201Z,57.40
2017-06-24T18:39:21.303Z,57.20
2017-06-24T18:41:49.353Z,57.40
2017-06-24T18:44:17.411Z,58.90
2017-06-24T18:46:45.493Z,60.10
2017-06-24T18:49:13.544Z,61.30
2017-06-24T18:51:41.616Z,62.40
2017-06-24T18:54:09.691Z,64.10
2017-06-24T18:56:37.744Z,65.00
2017-06-24T18:59:05.833Z,66.60
2017-06-24T19:01:33.904Z,67.90
2017-06-24T19:04:01.983Z,69.20
2017-06-24T19:06:30.100Z,69.60
2017-06-24T19:08:58.928Z,72.60
2017-06-24T19:11:27.042Z,72.50
2017-06-24T19:13:55.114Z,74.20
2017-06-24T19:16:23.187Z,74.60
2017-06-24T19:18:51.285Z,75.70
2017-06-24T19:21:20.146Z,77.10
2017-06-24T19:23:48.244Z,77.00
2017-06-24T19:26:17.074Z,78.10
2017-06-24T19:28:45.182Z,78.00
2017-06-24T19:31:13.291Z,78.10
2017-06-24T19:33:41.378Z,78.30
2017-06-24T19:36:10.190Z,80.40
2017-06-24T19:38:38.297Z,80.30
2017-06-24T19:41:07.141Z,80.30
2017-06-24T19:43:35.439Z,80.30
2017-06-24T19:46:03.507Z,81.40
2017-06-24T19:48:31.581Z,81.20
2017-06-24T19:50:59.653Z,82.00
2017-06-24T19:53:27.741Z,82.20
2017-06-24T19:55:56.583Z,84.00
2017-06-24T19:58:24.645Z,82.90
2017-06-24T20:00:52.758Z,82.00
2017-06-24T20:03:20.852Z,82.70
2017-06-24T20:05:48.895Z,82.60
2017-06-24T20:08:16.999Z,82.30
2017-06-24T20:10:45.855Z,82.50
2017-06-24T20:13:13.931Z,81.70
2017-06-24T20:15:42.026Z,81.20
2017-06-24T20:18:10.867Z,80.90
2017-06-24T20:20:38.948Z,80.80
2017-06-24T20:23:07.033Z,80.60
2017-06-24T20:25:35.110Z,81.30
2017-06-24T20:28:03.225Z,80.50
2017-06-24T20:30:31.315Z,79.90
2017-06-24T20:32:59.385Z,81.30
2017-06-24T20:35:27.488Z,81.70
2017-06-24T20:37:55.604Z,81.60
2017-06-24T20:40:24.421Z,80.90
2017-06-24T20:42:52.527Z,80.90
2017-06-24T20:45:20.779Z,80.60
2017-06-24T20:47:49.621Z,80.20
2017-06-24T20:50:17.691Z,80.00
2017-06-24T20:52:45.759Z,79.60
2017-06-24T20:55:13.845Z,79.80
2017-06-24T20:57:42.710Z,79.80
2017-06-24T21:00:10.770Z,79.40
2017-06-24T21:02:38.891Z,78.50
2017-06-24T21:05:07.719Z,78.40
2017-06-24T21:07:35.825Z,78.90
2017-06-24T21:10:03.907Z,78.20
2017-06-24T21:12:31.978Z,78.30
2017-06-24T21:15:00.047Z,79.30
2017-06-24T21:17:28.147Z,78.00
2017-06-24T21:19:56.967Z,78.00
2017-06-24T21:22:25.049Z,78.00
2017-06-24T21:24:53.139Z,78.80
2017-06-24T21:27:21.227Z,78.20
2017-06-24T21:29:49.284Z,77.50
2017-06-24T21:32:17.357Z,77.00
2017-06-24T21:34:45.435Z,76.10
2017-06-24T21:37:13.502Z,76.50
2017-06-24T21:39:41.594Z,76.90
2017-06-24T21:42:10.435Z,76.90
2017-06-24T21:44:39.350Z,77.40
2017-06-24T21:47:07.446Z,77.20
2017-06-24T21:49:35.529Z,78.40
2017-06-24T21:52:03.620Z,78.60
2017-06-24T21:54:31.694Z,78.50
2017-06-24T21:57:00.551Z,78.00
2017-06-24T21:59:28.638Z,78.00
2017-06-24T22:01:56.711Z,77.70
2017-06-24T22:04:24.787Z,77.40
2017-06-24T22:06:52.859Z,76.90
2017-06-24T22:09:20.932Z,78.70
2017-06-24T22:11:49.002Z,78.60
2017-06-24T22:14:17.084Z,79.50
2017-06-24T22:16:45.925Z,79.60
2017-06-24T22:19:13.994Z,79.50
2017-06-24T22:21:42.079Z,79.70
2017-06-24T22:24:10.152Z,79.40
2017-06-24T22:26:38.219Z,79.30
2017-06-24T22:29:06.318Z,79.20
2017-06-24T22:31:34.385Z,79.70
2017-06-24T22:34:02.467Z,79.50
2017-06-24T22:36:31.321Z,79.80
2017-06-24T22:38:59.396Z,78.80
2017-06-24T22:41:27.492Z,77.10
2017-06-24T22:43:55.559Z,77.90
2017-06-24T22:46:23.626Z,76.50
2017-06-24T22:48:51.697Z,76.80
2017-06-24T22:51:19.784Z,75.50
2017-06-24T22:53:47.859Z,75.10
2017-06-24T22:56:15.921Z,75.00
2017-06-24T22:58:44.031Z,74.90
2017-06-24T23:01:12.094Z,76.10
2017-06-24T23:03:40.171Z,75.30
2017-06-24T23:06:08.242Z,75.20
2017-06-24T23:08:36.314Z,75.60
2017-06-24T23:11:04.420Z,74.20
2017-06-24T23:13:32.512Z,75.00
2017-06-24T23:16:00.580Z,75.00
2017-06-24T23:18:28.675Z,74.90
2017-06-24T23:20:56.735Z,75.20
2017-06-24T23:23:24.794Z,76.40
2017-06-24T23:25:52.886Z,74.60
2017-06-24T23:28:20.984Z,74.60
2017-06-24T23:30:49.055Z,74.40
2017-06-24T23:33:17.147Z,74.80
2017-06-24T23:35:45.967Z,74.00
2017-06-24T23:38:14.039Z,73.90
2017-06-24T23:40:42.131Z,73.90
2017-06-24T23:43:10.204Z,74.00
2017-06-24T23:45:38.270Z,73.80
2017-06-24T23:48:06.351Z,73.40
2017-06-24T23:50:34.412Z,73.80
2017-06-24T23:53:02.479Z,74.20
2017-06-24T23:55:30.555Z,74.10
2017-06-24T23:57:58.623Z,73.70
